Time;durP1;ratioP1;P1;durP2;ratioP2;P2;SDS_P1;SDS_P2;PMS_P1;PMS_P2;Temp;Humidity;BMP_temperature;BMP_pressure;BME280_temperature;BME280_humidity;BME280_pressure;Samples;Min_cycle;Max_cycle;Signal;HPM_P1;HPM_P2
2022/01/02 00:01:34;;;;;;;4.90;2.67;;;5.80;99.70;;;;;;5030125;28;20038;-80
2022/01/02 00:04:12;;;;;;;3.40;2.30;;;5.80;99.70;;;;;;5028289;28;20042;-80
2022/01/02 00:06:47;;;;;;;4.10;2.38;;;5.80;99.70;;;;;;5012609;28;20054;-80
2022/01/02 00:09:35;;;;;;;3.67;2.25;;;5.80;99.70;;;;;;5030712;28;20013;-80
2022/01/02 00:12:07;;;;;;;3.17;2.08;;;5.70;99.50;;;;;;5029081;28;20022;-81
2022/01/02 00:14:36;;;;;;;3.15;2.05;;;5.70;99.50;;;;;;5030456;28;20131;-80
2022/01/02 00:17:04;;;;;;;2.65;1.80;;;5.70;99.60;;;;;;5011822;28;20076;-80
2022/01/02 00:19:32;;;;;;;2.80;1.92;;;5.70;99.60;;;;;;5028872;28;20482;-79
2022/01/02 00:22:01;;;;;;;3.15;2.03;;;5.60;99.60;;;;;;5030158;28;20028;-81
2022/01/02 00:24:28;;;;;;;2.95;2.30;;;5.60;99.70;;;;;;5011106;28;20036;-81
2022/01/02 00:26:56;;;;;;;3.03;2.20;;;5.60;99.80;;;;;;5010879;28;20056;-81
2022/01/02 00:29:22;;;;;;;3.53;2.30;;;5.50;99.70;;;;;;5008792;28;20018;-80
2022/01/02 00:31:48;;;;;;;3.35;2.40;;;5.50;99.70;;;;;;4990300;28;20044;-81
2022/01/02 00:34:15;;;;;;;3.63;2.50;;;5.50;99.80;;;;;;4993937;28;20050;-81
2022/01/02 00:36:41;;;;;;;4.00;2.70;;;5.50;99.90;;;;;;5018774;28;20076;-79
2022/01/02 00:39:07;;;;;;;3.20;2.40;;;5.50;99.90;;;;;;5011101;28;20040;-79
2022/01/02 00:41:45;;;;;;;4.15;2.53;;;5.50;99.90;;;;;;5011227;28;20033;-79
2022/01/02 00:44:22;;;;;;;4.38;2.60;;;5.40;99.80;;;;;;5013102;28;20101;-81
2022/01/02 00:46:53;;;;;;;3.70;2.42;;;5.40;99.70;;;;;;5029966;28;20030;-81
2022/01/02 00:49:24;;;;;;;2.63;1.92;;;5.50;99.80;;;;;;5010887;28;20002;-80
2022/01/02 00:51:57;;;;;;;5.20;2.70;;;5.40;99.60;;;;;;5030066;28;20022;-81
2022/01/02 00:54:28;;;;;;;3.80;2.10;;;5.40;99.40;;;;;;5011676;28;20250;-81
2022/01/02 00:57:03;;;;;;;3.20;2.17;;;5.40;99.20;;;;;;5029622;28;20033;-81
2022/01/02 00:59:34;;;;;;;3.13;2.10;;;5.40;98.90;;;;;;5010262;28;20030;-80
2022/01/02 01:02:11;;;;;;;2.67;1.90;;;5.40;98.60;;;;;;5032163;28;20085;-81
2022/01/02 01:04:43;;;;;;;2.78;2.10;;;5.50;98.30;;;;;;5012961;28;20042;-81
2022/01/02 01:07:17;;;;;;;;;;;5.40;97.90;;;;;;5015713;28;20026;-81
2022/01/02 01:13:58;;;;;;;3.80;2.13;;;5.40;97.40;;;;;;4878326;29;20056;-80
2022/01/02 01:16:45;;;;;;;4.65;2.40;;;5.40;97.10;;;;;;4879103;29;20025;-79
2022/01/02 01:19:11;;;;;;;3.72;2.00;;;5.40;97.00;;;;;;4953247;28;20043;-81
2022/01/02 01:21:36;;;;;;;2.88;1.92;;;5.40;96.80;;;;;;5021926;28;20557;-80
2022/01/02 01:24:02;;;;;;;2.65;1.77;;;5.40;96.80;;;;;;5029244;28;20120;-80
2022/01/02 01:26:28;;;;;;;3.47;1.77;;;5.40;96.90;;;;;;5030149;28;20033;-80
2022/01/02 01:28:54;;;;;;;3.05;1.60;;;5.30;96.90;;;;;;5010677;28;20054;-80
2022/01/02 01:31:20;;;;;;;1.40;1.30;;;5.30;97.00;;;;;;5029915;28;20125;-80
2022/01/02 01:33:45;;;;;;;2.70;1.80;;;5.30;97.00;;;;;;5012140;28;20056;-81
2022/01/02 01:36:11;;;;;;;2.88;1.80;;;5.30;97.00;;;;;;5029628;28;20026;-80
2022/01/02 01:38:37;;;;;;;2.28;1.90;;;5.30;96.90;;;;;;5010479;28;20044;-80
2022/01/02 01:41:28;;;;;;;3.42;1.73;;;5.30;96.70;;;;;;5032630;28;20053;-81
2022/01/02 01:44:07;;;;;;;3.70;1.98;;;5.30;96.70;;;;;;5018798;28;20032;-80
2022/01/02 01:46:34;;;;;;;3.33;1.80;;;5.30;96.70;;;;;;5035964;28;20029;-79
2022/01/02 01:49:00;;;;;;;2.85;1.65;;;5.20;96.70;;;;;;5036080;28;20026;-81
2022/01/02 01:51:26;;;;;;;2.55;1.67;;;5.20;96.90;;;;;;5016978;28;20056;-80
2022/01/02 01:53:52;;;;;;;3.35;1.42;;;5.20;96.90;;;;;;5034799;28;20033;-80
2022/01/02 01:56:19;;;;;;;6.30;2.10;;;5.30;96.90;;;;;;5017923;28;20026;-80
2022/01/02 01:58:45;;;;;;;4.50;2.35;;;5.20;96.80;;;;;;5035141;28;20494;-80
2022/01/02 02:01:11;;;;;;;2.67;1.95;;;5.20;96.70;;;;;;5017910;28;20129;-81
2022/01/02 02:03:37;;;;;;;4.10;2.10;;;5.20;96.80;;;;;;5035162;28;20033;-79
2022/01/02 02:06:03;;;;;;;3.00;1.60;;;5.20;96.90;;;;;;5035599;28;20027;-80
2022/01/02 02:08:28;;;;;;;3.20;1.92;;;5.20;96.90;;;;;;5024613;28;20140;-80
2022/01/02 02:10:57;;;;;;;3.63;2.10;;;5.20;96.90;;;;;;5007935;28;20052;-80
2022/01/02 02:13:24;;;;;;;5.03;2.30;;;5.20;96.70;;;;;;5016337;28;20418;-80
2022/01/02 02:15:56;;;;;;;3.30;1.80;;;5.30;96.50;;;;;;5017569;28;20062;-80
2022/01/02 02:18:21;;;;;;;3.10;1.90;;;5.30;96.30;;;;;;5034479;28;20022;-80
2022/01/02 02:20:47;;;;;;;3.17;2.13;;;5.40;96.00;;;;;;5030321;28;20076;-77
2022/01/02 02:23:14;;;;;;;3.25;1.65;;;5.40;95.70;;;;;;5025676;28;20029;-81
2022/01/02 02:25:41;;;;;;;2.42;1.50;;;5.40;95.50;;;;;;5007022;28;20052;-77
2022/01/02 02:28:16;;;;;;;2.70;1.67;;;5.50;95.20;;;;;;5009496;28;20072;-78
2022/01/02 02:30:45;;;;;;;5.72;1.60;;;5.50;95.10;;;;;;5007586;28;20025;-79
2022/01/02 02:33:13;;;;;;;2.55;1.58;;;5.50;94.80;;;;;;5007393;28;20061;-77
2022/01/02 02:35:40;;;;;;;3.97;1.88;;;5.50;94.70;;;;;;5012344;28;20027;-77
2022/01/02 02:38:08;;;;;;;3.08;1.75;;;5.60;94.70;;;;;;5019544;28;20026;-78
2022/01/02 02:40:35;;;;;;;2.00;1.27;;;5.60;94.60;;;;;;5006711;28;20121;-77
2022/01/02 02:43:21;;;;;;;1.83;1.48;;;5.60;94.30;;;;;;5022547;28;20030;-78
2022/01/02 02:51:23;;;;;;;2.78;1.67;;;5.70;93.40;;;;;;5023443;28;20443;-79
2022/01/02 02:53:50;;;;;;;2.83;1.42;;;5.70;93.20;;;;;;4986810;28;20022;-79
2022/01/02 02:56:23;;;;;;;2.50;1.38;;;5.70;93.10;;;;;;5002958;28;20026;-77
2022/01/02 02:58:55;;;;;;;2.10;1.55;;;5.70;93.00;;;;;;4984166;28;20027;-78
2022/01/02 03:01:22;;;;;;;3.40;1.38;;;5.70;92.90;;;;;;4987187;28;20034;-77
2022/01/02 03:03:49;;;;;;;2.40;1.52;;;5.70;93.00;;;;;;5005741;28;20027;-76
2022/01/02 03:06:16;;;;;;;2.78;1.60;;;5.60;93.10;;;;;;5006906;28;20145;-80
2022/01/02 03:08:44;;;;;;;3.47;1.50;;;5.60;93.20;;;;;;5008134;28;20102;-78
2022/01/02 03:11:15;;;;;;;2.25;1.48;;;5.60;93.20;;;;;;4992927;28;20023;-79
2022/01/02 03:13:42;;;;;;;1.40;1.30;;;5.60;93.50;;;;;;5014126;28;20522;-79
2022/01/02 03:16:08;;;;;;;0.98;0.93;;;5.60;93.10;;;;;;5035932;28;20026;-79
2022/01/02 03:18:34;;;;;;;1.60;1.38;;;5.60;93.00;;;;;;5018122;28;20065;-78
2022/01/02 03:21:00;;;;;;;2.28;1.35;;;5.70;92.80;;;;;;5014295;28;20036;-77
2022/01/02 03:23:26;;;;;;;2.17;1.52;;;5.70;92.60;;;;;;5027305;28;20109;-78
2022/01/02 03:25:51;;;;;;;1.80;1.50;;;5.70;92.50;;;;;;5007066;28;20049;-80
2022/01/02 03:28:17;;;;;;;2.63;1.33;;;5.70;92.30;;;;;;5006608;28;20049;-79
2022/01/02 03:30:47;;;;;;;1.10;1.00;;;5.70;92.30;;;;;;5012630;28;20040;-82
2022/01/02 03:33:13;;;;;;;2.13;1.40;;;5.70;92.30;;;;;;5016989;28;20080;-80
2022/01/02 03:35:39;;;;;;;1.98;1.40;;;5.70;92.30;;;;;;5034065;28;20014;-81
2022/01/02 03:38:05;;;;;;;2.35;1.48;;;5.70;92.20;;;;;;5032318;28;20482;-82
2022/01/02 03:40:31;;;;;;;2.10;1.90;;;5.70;92.20;;;;;;5015545;28;20037;-81
2022/01/02 03:42:57;;;;;;;1.70;1.20;;;5.60;92.30;;;;;;5031196;28;20045;-81
2022/01/02 03:45:23;;;;;;;1.95;1.30;;;5.70;92.30;;;;;;5030910;28;20113;-82
2022/01/02 03:47:49;;;;;;;1.48;0.90;;;5.60;92.20;;;;;;5030211;28;20082;-82
2022/01/02 03:50:15;;;;;;;1.15;1.00;;;5.70;92.10;;;;;;5012643;28;20026;-81
2022/01/02 03:52:41;;;;;;;1.58;1.13;;;5.70;92.00;;;;;;5011066;28;20018;-81
2022/01/02 03:55:08;;;;;;;2.72;1.30;;;5.70;91.90;;;;;;5027840;28;20032;-81
2022/01/02 03:57:34;;;;;;;2.60;1.30;;;5.70;91.80;;;;;;5027804;28;20121;-81
2022/01/02 04:00:01;;;;;;;2.05;1.13;;;5.70;91.70;;;;;;5027480;28;20036;-81
2022/01/02 04:02:27;;;;;;;2.78;1.33;;;5.70;91.70;;;;;;5009437;28;20033;-81
2022/01/02 04:04:53;;;;;;;1.98;1.00;;;5.70;91.70;;;;;;5011262;28;20032;-80
2022/01/02 04:07:19;;;;;;;1.50;1.10;;;5.60;91.70;;;;;;5037277;28;20025;-81
2022/01/02 04:09:44;;;;;;;1.13;0.98;;;5.60;91.70;;;;;;5036497;28;20037;-82
2022/01/02 04:12:10;;;;;;;1.70;0.90;;;5.60;91.70;;;;;;5033269;28;20029;-80
2022/01/02 04:14:36;;;;;;;5.88;0.90;;;5.60;91.60;;;;;;5011017;28;20097;-80
2022/01/02 04:17:02;;;;;;;1.13;0.98;;;5.60;91.60;;;;;;5030813;28;20022;-81
2022/01/02 04:19:28;;;;;;;1.15;0.80;;;5.60;91.60;;;;;;5031893;28;20073;-81
2022/01/02 04:21:54;;;;;;;2.40;1.00;;;5.60;91.50;;;;;;5015043;28;20025;-81
2022/01/02 04:24:20;;;;;;;1.80;1.00;;;5.70;91.40;;;;;;5013772;28;20057;-82
2022/01/02 04:26:46;;;;;;;2.13;1.35;;;5.70;91.30;;;;;;5030615;28;20034;-82
2022/01/02 04:29:11;;;;;;;1.80;1.13;;;5.70;91.10;;;;;;5030609;28;20029;-82
2022/01/02 04:31:37;;;;;;;1.27;0.90;;;5.70;91.10;;;;;;5031065;28;20022;-80
2022/01/02 04:34:03;;;;;;;1.98;1.27;;;5.70;91.00;;;;;;5031809;28;20021;-82
2022/01/02 04:36:29;;;;;;;1.60;1.23;;;5.70;91.00;;;;;;5011362;28;20033;-81
2022/01/02 04:38:55;;;;;;;2.83;0.90;;;5.70;90.90;;;;;;5025628;28;20061;-81
2022/01/02 04:41:21;;;;;;;1.25;0.93;;;5.70;90.90;;;;;;5029372;28;20042;-82
2022/01/02 04:43:46;;;;;;;1.15;1.05;;;5.70;90.90;;;;;;5009930;28;20034;-79
2022/01/02 04:46:34;;;;;;;1.40;0.90;;;5.70;91.20;;;;;;5006369;28;20094;-80
2022/01/02 05:06:55;;;;;;;1.30;1.00;;;5.40;91.70;;;;;;4842288;29;20120;-81
2022/01/02 05:22:50;;;;;;;1.42;1.23;;;5.10;92.80;;;;;;4865810;29;20063;-79
2022/01/02 05:25:57;;;;;;;1.60;1.15;;;5.10;92.90;;;;;;4879846;29;20034;-81
2022/01/02 05:29:15;;;;;;;2.80;1.10;;;5.10;92.90;;;;;;4936643;29;20043;-82
2022/01/02 05:31:46;;;;;;;1.25;0.93;;;5.10;92.90;;;;;;4925066;29;20031;-79
2022/01/02 05:34:12;;;;;;;1.27;1.02;;;5.10;92.90;;;;;;5018598;28;20006;-80
2022/01/02 05:36:38;;;;;;;2.45;1.27;;;5.10;92.90;;;;;;5016785;28;20090;-79
2022/01/02 05:39:04;;;;;;;2.25;1.00;;;5.10;92.80;;;;;;5037979;28;20038;-80
2022/01/02 05:41:32;;;;;;;3.63;1.08;;;5.10;92.80;;;;;;5038343;28;20038;-81
2022/01/02 05:44:01;;;;;;;2.33;1.20;;;5.10;92.80;;;;;;5019631;28;20018;-78
2022/01/02 05:46:29;;;;;;;2.03;1.25;;;5.10;92.80;;;;;;5035492;28;20021;-80
2022/01/02 05:48:55;;;;;;;1.05;0.80;;;5.10;92.60;;;;;;5017849;28;20025;-80
2022/01/02 05:51:20;;;;;;;1.13;0.90;;;5.10;92.50;;;;;;5035949;28;20052;-80
2022/01/02 05:53:46;;;;;;;0.98;0.63;;;5.10;92.40;;;;;;5018215;28;20030;-81
2022/01/02 05:56:12;;;;;;;1.25;1.05;;;5.10;92.30;;;;;;5017987;28;20037;-81
2022/01/02 05:58:38;;;;;;;1.58;0.90;;;5.10;92.10;;;;;;5017277;28;20034;-80
2022/01/02 06:01:04;;;;;;;1.20;0.73;;;5.20;91.90;;;;;;5019328;28;20041;-80
2022/01/02 06:03:30;;;;;;;1.35;0.70;;;5.20;91.70;;;;;;5017836;28;20030;-80
2022/01/02 06:05:56;;;;;;;1.80;1.02;;;5.20;91.50;;;;;;5034534;28;20091;-79
2022/01/02 06:08:21;;;;;;;1.25;0.60;;;5.20;91.40;;;;;;5021724;28;20022;-79
2022/01/02 06:10:48;;;;;;;0.90;0.82;;;5.10;91.40;;;;;;5013550;28;20034;-78
2022/01/02 06:13:14;;;;;;;1.38;0.70;;;5.10;91.50;;;;;;5023261;28;20090;-77
2022/01/02 06:15:39;;;;;;;0.80;0.80;;;5.10;91.70;;;;;;5023749;28;20053;-78
2022/01/02 06:18:05;;;;;;;1.67;0.95;;;5.10;91.70;;;;;;5023693;28;20034;-76
2022/01/02 06:20:31;;;;;;;1.98;0.90;;;5.10;91.70;;;;;;5022536;28;20391;-76
2022/01/02 06:22:57;;;;;;;0.65;0.57;;;5.10;91.70;;;;;;5023158;28;20030;-77
2022/01/02 06:25:23;;;;;;;1.33;0.80;;;5.00;91.80;;;;;;5022200;28;20093;-76
2022/01/02 06:27:49;;;;;;;1.58;0.90;;;5.00;91.90;;;;;;5023449;28;20029;-76
2022/01/02 06:30:15;;;;;;;1.10;0.90;;;5.00;92.10;;;;;;5001693;28;20124;-76
2022/01/02 06:32:41;;;;;;;2.10;0.70;;;5.00;92.20;;;;;;4985339;28;20023;-77
2022/01/02 06:35:08;;;;;;;0.90;0.70;;;5.00;92.20;;;;;;5012893;28;20593;-77
2022/01/02 06:37:34;;;;;;;1.17;0.95;;;5.00;92.20;;;;;;5012504;28;20117;-77
2022/01/02 06:39:59;;;;;;;1.08;0.65;;;5.00;92.20;;;;;;5021909;28;20268;-77
2022/01/02 06:42:25;;;;;;;1.42;0.80;;;4.90;92.30;;;;;;5022510;28;20483;-77
2022/01/02 06:44:51;;;;;;;1.20;0.80;;;4.90;92.30;;;;;;5021441;28;20025;-77
2022/01/02 06:47:16;;;;;;;1.52;0.90;;;4.80;92.30;;;;;;5002565;28;20037;-76
2022/01/02 06:49:42;;;;;;;1.13;0.70;;;4.80;92.40;;;;;;5003713;28;20022;-77
2022/01/02 06:52:08;;;;;;;0.50;0.40;;;4.80;92.50;;;;;;5005338;28;20029;-76
2022/01/02 06:54:34;;;;;;;0.70;0.68;;;4.80;92.60;;;;;;5024584;28;20022;-77
2022/01/02 06:57:00;;;;;;;1.73;1.20;;;4.80;92.60;;;;;;5024374;28;20395;-77
2022/01/02 06:59:26;;;;;;;1.13;0.80;;;4.80;92.60;;;;;;5005303;28;20030;-76
2022/01/02 07:01:52;;;;;;;1.52;0.90;;;4.90;92.70;;;;;;5023624;28;20030;-75
2022/01/02 07:04:17;;;;;;;2.20;0.80;;;5.00;92.60;;;;;;5003732;28;20068;-76
2022/01/02 07:06:43;;;;;;;1.15;0.82;;;5.00;92.40;;;;;;5004716;28;20498;-76
2022/01/02 07:09:09;;;;;;;0.98;0.70;;;5.00;92.30;;;;;;5000200;28;20069;-77
2022/01/02 07:11:35;;;;;;;1.40;0.70;;;5.10;92.20;;;;;;5013322;28;20029;-76
2022/01/02 07:14:00;;;;;;;1.50;0.90;;;5.10;92.10;;;;;;5020529;28;20082;-76
2022/01/02 07:16:26;;;;;;;0.90;0.82;;;5.10;92.00;;;;;;5018634;28;20034;-77
2022/01/02 07:18:52;;;;;;;3.35;1.08;;;5.20;92.00;;;;;;5020533;28;20057;-78
2022/01/02 07:21:18;;;;;;;2.53;0.75;;;5.10;91.80;;;;;;5019643;28;20029;-76
2022/01/02 07:23:44;;;;;;;3.88;1.10;;;5.20;91.80;;;;;;5019197;28;20398;-77
2022/01/02 07:26:10;;;;;;;1.50;1.27;;;5.20;91.70;;;;;;5019400;28;20106;-77
2022/01/02 07:28:36;;;;;;;1.95;0.75;;;5.30;91.60;;;;;;5022008;28;20006;-80
2022/01/02 07:31:01;;;;;;;0.68;0.63;;;5.30;91.50;;;;;;5009812;28;20027;-78
2022/01/02 07:33:27;;;;;;;0.63;0.50;;;5.30;91.40;;;;;;5006762;28;20022;-79
2022/01/02 07:35:53;;;;;;;0.65;0.65;;;5.40;91.30;;;;;;5028859;28;20049;-80
2022/01/02 07:38:19;;;;;;;1.38;0.70;;;5.50;91.20;;;;;;5011155;28;20029;-79
2022/01/02 07:40:44;;;;;;;1.10;0.98;;;5.50;91.10;;;;;;5004170;28;20034;-82
2022/01/02 07:43:10;;;;;;;0.95;0.75;;;5.50;90.90;;;;;;5016604;28;20037;-81
2022/01/02 07:45:36;;;;;;;1.85;1.00;;;5.60;90.80;;;;;;5032416;28;20022;-81
2022/01/02 07:48:02;;;;;;;1.50;1.00;;;5.70;90.70;;;;;;5036365;28;20080;-82
2022/01/02 07:50:28;;;;;;;1.35;1.10;;;5.70;90.50;;;;;;5008070;28;20069;-81
2022/01/02 07:52:53;;;;;;;1.33;0.70;;;5.80;90.40;;;;;;5005810;28;20049;-79
2022/01/02 07:55:19;;;;;;;1.65;1.00;;;6.00;90.30;;;;;;5004478;28;20010;-82
2022/01/02 07:57:45;;;;;;;0.70;0.70;;;6.20;89.70;;;;;;5022033;28;20101;-81
2022/01/02 08:00:12;;;;;;;0.98;0.90;;;6.30;89.00;;;;;;5010716;28;20034;-82
2022/01/02 08:02:38;;;;;;;1.48;0.95;;;6.30;88.90;;;;;;4998154;28;20032;-81
2022/01/02 08:05:06;;;;;;;1.02;1.02;;;6.40;88.60;;;;;;5018689;28;20029;-81
2022/01/02 08:07:33;;;;;;;2.15;1.08;;;6.40;88.40;;;;;;5023681;28;20026;-80
2022/01/02 08:09:58;;;;;;;1.10;0.80;;;6.40;88.20;;;;;;5018366;28;20509;-81
2022/01/02 08:12:24;;;;;;;1.60;1.08;;;6.50;88.00;;;;;;5031210;28;20026;-83
2022/01/02 08:14:50;;;;;;;1.17;0.90;;;6.60;87.50;;;;;;5030602;28;20018;-82
2022/01/02 08:17:16;;;;;;;2.67;1.17;;;6.60;87.00;;;;;;5012681;28;20033;-81
2022/01/02 08:19:41;;;;;;;2.97;0.90;;;6.60;86.90;;;;;;5030774;28;20466;-82
2022/01/02 08:22:07;;;;;;;3.30;1.25;;;6.70;86.70;;;;;;5012489;28;20113;-83
2022/01/02 08:24:33;;;;;;;1.63;1.52;;;6.70;86.50;;;;;;5016778;28;20030;-81
2022/01/02 08:26:59;;;;;;;1.10;1.00;;;6.80;86.20;;;;;;5014671;28;20030;-80
2022/01/02 08:29:24;;;;;;;1.17;0.90;;;6.80;85.70;;;;;;5016527;28;20042;-79
2022/01/02 08:31:50;;;;;;;6.03;1.13;;;6.80;85.30;;;;;;4999242;28;20094;-79
2022/01/02 08:34:16;;;;;;;0.90;0.82;;;6.90;84.90;;;;;;4991542;28;20023;-79
2022/01/02 08:36:42;;;;;;;2.20;1.10;;;6.90;84.60;;;;;;5030082;28;20026;-79
2022/01/02 08:39:07;;;;;;;0.93;0.80;;;7.00;84.40;;;;;;5010505;28;20407;-80
2022/01/02 08:41:36;;;;;;;3.65;0.98;;;7.00;84.00;;;;;;5009406;28;20036;-80
2022/01/02 08:44:02;;;;;;;1.15;0.98;;;7.00;83.80;;;;;;5014711;28;20025;-79
2022/01/02 08:46:28;;;;;;;1.15;1.05;;;7.10;83.80;;;;;;5031874;28;20032;-80
2022/01/02 08:48:54;;;;;;;1.48;0.90;;;7.10;83.70;;;;;;5030158;28;20037;-80
2022/01/02 08:51:19;;;;;;;1.33;1.10;;;7.20;83.60;;;;;;5015151;28;20022;-78
2022/01/02 08:53:45;;;;;;;1.45;1.23;;;7.30;83.30;;;;;;5033257;28;20032;-79
2022/01/02 08:56:11;;;;;;;1.45;1.08;;;7.50;83.00;;;;;;5031208;28;20049;-81
2022/01/02 08:58:36;;;;;;;1.17;1.08;;;7.60;82.40;;;;;;5030783;28;20042;-80
2022/01/02 09:01:02;;;;;;;2.55;0.90;;;7.80;82.00;;;;;;5033393;28;20030;-79
2022/01/02 09:03:29;;;;;;;1.77;1.20;;;7.90;81.50;;;;;;5032947;28;20049;-80
2022/01/02 09:05:56;;;;;;;3.53;1.33;;;8.10;80.80;;;;;;5032236;28;20050;-79
2022/01/02 09:08:22;;;;;;;2.58;1.40;;;8.30;79.70;;;;;;5022963;28;20097;-79
2022/01/02 09:10:48;;;;;;;2.05;1.20;;;8.50;79.00;;;;;;5030140;28;20411;-81
2022/01/02 09:13:13;;;;;;;2.20;1.08;;;8.70;78.30;;;;;;5032251;28;20053;-78
2022/01/02 09:15:39;;;;;;;1.90;1.20;;;8.80;77.50;;;;;;5014124;28;20034;-79
2022/01/02 09:18:05;;;;;;;1.50;1.25;;;8.90;76.70;;;;;;5031214;28;20026;-80
2022/01/02 09:20:32;;;;;;;2.08;1.20;;;8.90;75.80;;;;;;5012478;28;20101;-80
2022/01/02 09:22:58;;;;;;;2.15;1.38;;;9.00;75.40;;;;;;5030374;28;20087;-80
2022/01/02 09:25:24;;;;;;;3.75;1.50;;;8.90;75.00;;;;;;5028598;28;20122;-81
2022/01/02 09:27:50;;;;;;;1.30;0.80;;;8.90;74.80;;;;;;5030574;28;20029;-80
2022/01/02 09:30:16;;;;;;;0.70;0.70;;;8.80;74.80;;;;;;5032881;28;20100;-79
2022/01/02 09:32:42;;;;;;;1.20;1.02;;;8.80;74.80;;;;;;5033068;28;20018;-80
2022/01/02 09:35:11;;;;;;;1.35;0.85;;;8.80;74.50;;;;;;5001325;28;20042;-79
2022/01/02 09:37:37;;;;;;;1.83;0.90;;;9.00;74.10;;;;;;4986136;28;20029;-80
2022/01/02 09:40:05;;;;;;;1.40;1.02;;;9.20;73.40;;;;;;4989998;28;20495;-79
2022/01/02 09:42:32;;;;;;;1.67;0.75;;;9.40;72.20;;;;;;5000125;28;20026;-79
2022/01/02 09:44:58;;;;;;;0.82;0.77;;;9.60;70.90;;;;;;4980218;28;20109;-78
2022/01/02 09:47:24;;;;;;;0.98;0.60;;;9.80;69.80;;;;;;4980576;28;20499;-78
2022/01/02 09:49:50;;;;;;;0.50;0.50;;;10.10;68.50;;;;;;4997328;28;20410;-77
2022/01/02 09:52:17;;;;;;;1.40;0.57;;;10.20;67.20;;;;;;4980771;28;20030;-79
2022/01/02 09:54:43;;;;;;;1.35;0.90;;;10.40;66.00;;;;;;4999484;28;20037;-79
2022/01/02 09:57:09;;;;;;;0.63;0.60;;;10.50;64.90;;;;;;4985312;28;20049;-81
2022/01/02 09:59:34;;;;;;;0.63;0.60;;;10.60;64.10;;;;;;5018642;28;20029;-78
2022/01/02 10:02:01;;;;;;;0.50;0.50;;;10.80;63.40;;;;;;5001752;28;20168;-79
2022/01/02 10:04:38;;;;;;;1.35;1.02;;;10.90;62.50;;;;;;5019129;28;20026;-79
2022/01/02 10:07:31;;;;;;;0.93;0.70;;;10.90;61.80;;;;;;5008490;28;20073;-79
2022/01/02 10:09:57;;;;;;;;;;;11.10;60.70;;;;;;5002271;28;20072;-78
2022/01/02 10:12:25;;;;;;;1.15;0.70;;;11.20;60.10;;;;;;4983727;28;19905;-81
2022/01/02 10:15:06;;;;;;;0.93;0.50;;;11.40;59.70;;;;;;5001226;28;20018;-79
2022/01/02 10:17:52;;;;;;;0.68;0.60;;;11.50;59.30;;;;;;5005818;28;20022;-80
2022/01/02 10:20:18;;;;;;;1.10;0.80;;;11.70;59.00;;;;;;5028560;28;20060;-78
2022/01/02 10:23:04;;;;;;;0.75;0.60;;;11.90;58.50;;;;;;5026702;28;20029;-79
2022/01/02 10:25:57;;;;;;;0.73;0.60;;;12.00;57.80;;;;;;5029107;28;20045;-79
2022/01/02 10:28:34;;;;;;;0.50;0.50;;;12.10;57.50;;;;;;5026083;28;20025;-79
2022/01/02 10:31:05;;;;;;;0.60;0.60;;;12.30;56.90;;;;;;5029917;28;20085;-78
2022/01/02 10:34:03;;;;;;;0.52;0.52;;;12.40;56.50;;;;;;5016273;28;20109;-80
2022/01/02 10:36:33;;;;;;;0.73;0.73;;;12.40;56.10;;;;;;5032681;28;20094;-80
2022/01/02 10:39:09;;;;;;;0.55;0.50;;;12.40;55.90;;;;;;5032981;28;20061;-81
2022/01/02 10:41:48;;;;;;;0.50;0.50;;;12.40;55.90;;;;;;5020834;28;20087;-79
2022/01/02 10:44:35;;;;;;;1.00;0.43;;;12.40;55.70;;;;;;5036454;28;20014;-83
2022/01/02 10:47:46;;;;;;;0.50;0.50;;;12.40;55.70;;;;;;5036171;28;20101;-80
2022/01/02 10:50:13;;;;;;;0.73;0.60;;;12.50;55.30;;;;;;4937859;29;20079;-81
2022/01/02 10:52:45;;;;;;;1.08;0.60;;;12.60;55.30;;;;;;4937150;29;20039;-80
2022/01/02 10:55:19;;;;;;;1.17;0.70;;;12.60;55.20;;;;;;4993350;28;20030;-81
2022/01/02 10:57:52;;;;;;;0.98;0.60;;;12.60;55.10;;;;;;5029600;28;20022;-81
2022/01/02 11:00:20;;;;;;;1.45;0.68;;;12.80;55.00;;;;;;5032348;28;20025;-81
2022/01/02 11:02:46;;;;;;;0.55;0.52;;;12.90;54.50;;;;;;5035187;28;20053;-81
2022/01/02 11:05:14;;;;;;;1.13;0.75;;;13.00;54.00;;;;;;5017111;28;20030;-80
2022/01/02 11:07:46;;;;;;;0.70;0.50;;;13.20;53.60;;;;;;5017345;28;20025;-79
2022/01/02 11:10:17;;;;;;;0.70;0.68;;;13.20;54.10;;;;;;5017738;28;20022;-80
2022/01/02 11:12:44;;;;;;;1.02;0.60;;;13.20;53.40;;;;;;5017595;28;20026;-80
2022/01/02 11:15:15;;;;;;;0.50;0.50;;;13.20;53.40;;;;;;5011423;28;20018;-81
2022/01/02 11:17:41;;;;;;;0.68;0.60;;;13.20;53.40;;;;;;5023462;28;20052;-81
2022/01/02 11:20:13;;;;;;;3.35;1.02;;;13.20;53.60;;;;;;5005121;28;20014;-83
2022/01/02 11:22:41;;;;;;;1.23;0.88;;;13.10;53.80;;;;;;5026672;28;20036;-82
2022/01/02 11:25:36;;;;;;;2.25;1.08;;;13.10;54.00;;;;;;5006076;28;20092;-81
2022/01/02 11:28:05;;;;;;;1.45;1.08;;;13.10;54.20;;;;;;4984839;28;20037;-81
2022/01/02 11:30:31;;;;;;;1.05;0.82;;;13.10;54.40;;;;;;4991729;28;20036;-81
2022/01/02 11:33:04;;;;;;;2.55;1.38;;;13.10;54.40;;;;;;5005686;28;20112;-81
2022/01/02 11:35:31;;;;;;;1.20;0.80;;;13.20;54.20;;;;;;5024957;28;20401;-81
2022/01/02 11:38:03;;;;;;;0.82;0.80;;;13.30;54.10;;;;;;5032582;28;20016;-81
2022/01/02 11:41:04;;;;;;;1.90;0.93;;;13.30;54.00;;;;;;5016446;28;20022;-80
2022/01/02 11:43:37;;;;;;;0.70;0.70;;;13.40;53.90;;;;;;5032635;28;20398;-80
2022/01/02 11:46:23;;;;;;;0.75;0.63;;;13.50;53.70;;;;;;5032327;28;20247;-80
2022/01/02 11:49:13;;;;;;;1.77;0.88;;;13.60;53.60;;;;;;5013915;28;20022;-81
2022/01/02 11:51:48;;;;;;;0.63;0.60;;;13.70;53.30;;;;;;5031624;28;20033;-80
2022/01/02 11:56:59;;;;;;;1.55;0.70;;;13.90;52.60;;;;;;5025949;28;20045;-81
2022/01/02 11:59:44;;;;;;;0.43;0.32;;;13.90;52.30;;;;;;5013504;28;20049;-80
2022/01/02 12:02:18;;;;;;;0.68;0.65;;;13.90;52.10;;;;;;5015159;28;20022;-80
2022/01/02 12:05:02;;;;;;;0.70;0.70;;;13.90;52.00;;;;;;5014587;28;20061;-79
2022/01/02 12:07:34;;;;;;;0.70;0.60;;;14.00;52.40;;;;;;5032921;28;20113;-79
2022/01/02 12:13:13;;;;;;;0.93;0.57;;;14.30;51.30;;;;;;5031586;28;20034;-79
2022/01/02 12:15:39;;;;;;;0.50;0.50;;;14.40;50.60;;;;;;5007938;28;20034;-80
2022/01/02 12:18:08;;;;;;;2.05;0.43;;;14.60;50.00;;;;;;5017282;28;20030;-79
2022/01/02 12:21:00;;;;;;;0.40;0.40;;;14.80;49.40;;;;;;5028271;28;20050;-79
2022/01/02 12:23:43;;;;;;;2.22;0.55;;;14.90;49.50;;;;;;5007644;28;20022;-78
2022/01/02 12:26:09;;;;;;;;;;;15.10;48.60;;;;;;5009461;28;20080;-79
2022/01/02 12:28:57;;;;;;;1.00;0.77;;;15.10;48.20;;;;;;5022932;28;19909;-78
2022/01/02 12:31:43;;;;;;;0.38;0.35;;;15.00;48.00;;;;;;5005692;28;20022;-79
2022/01/02 12:34:18;;;;;;;0.60;0.60;;;15.00;48.40;;;;;;5006330;28;20033;-81
2022/01/02 12:36:50;;;;;;;2.00;0.80;;;15.00;49.20;;;;;;5007898;28;20052;-78
2022/01/02 12:39:28;;;;;;;1.65;0.68;;;15.00;48.50;;;;;;5008319;28;20101;-80
2022/01/02 12:41:59;;;;;;;1.33;0.60;;;15.00;48.50;;;;;;5024757;28;20034;-79
2022/01/02 12:44:27;;;;;;;1.15;0.90;;;15.00;48.50;;;;;;5009276;28;20497;-80
2022/01/02 12:46:54;;;;;;;1.20;1.02;;;15.00;47.70;;;;;;5034492;28;20033;-81
2022/01/02 12:49:25;;;;;;;0.52;0.52;;;15.10;47.70;;;;;;5015686;28;20042;-81
2022/01/02 12:51:54;;;;;;;2.65;0.70;;;15.10;47.40;;;;;;4994585;28;20439;-81
2022/01/02 12:54:27;;;;;;;1.00;0.55;;;15.00;47.50;;;;;;5008450;28;20022;-80
2022/01/02 12:56:54;;;;;;;0.70;0.50;;;14.90;47.50;;;;;;4996941;28;20440;-80
2022/01/02 12:59:31;;;;;;;0.88;0.70;;;14.90;47.50;;;;;;5007747;28;20026;-81
2022/01/02 13:02:05;;;;;;;0.70;0.60;;;14.80;47.30;;;;;;5007759;28;20026;-80
2022/01/02 13:04:36;;;;;;;1.05;0.60;;;14.80;47.50;;;;;;5008861;28;20049;-79
2022/01/02 13:07:21;;;;;;;0.50;0.50;;;14.90;47.10;;;;;;5007764;28;20026;-79
2022/01/02 13:09:50;;;;;;;0.35;0.35;;;15.10;47.00;;;;;;5005958;28;20039;-79
2022/01/02 13:12:18;;;;;;;0.65;0.50;;;15.20;45.90;;;;;;5007630;28;20027;-81
2022/01/02 13:14:58;;;;;;;2.75;0.70;;;15.30;45.50;;;;;;5023954;28;20037;-79
2022/01/02 13:17:29;;;;;;;0.85;0.57;;;15.40;45.20;;;;;;4994712;28;20030;-82
2022/01/02 13:19:59;;;;;;;1.17;0.47;;;15.50;44.90;;;;;;5012193;28;20038;-81
2022/01/02 13:22:27;;;;;;;2.70;0.65;;;15.50;44.60;;;;;;5011031;28;20038;-80
2022/01/02 13:24:55;;;;;;;1.45;0.50;;;15.50;44.60;;;;;;4992506;28;20038;-79
2022/01/02 13:27:22;;;;;;;0.80;0.68;;;15.60;44.50;;;;;;5008836;28;20073;-80
2022/01/02 13:29:59;;;;;;;1.50;0.60;;;15.60;44.00;;;;;;5008742;28;20026;-79
2022/01/02 13:32:27;;;;;;;2.28;0.50;;;15.70;43.60;;;;;;5007085;28;20019;-79
2022/01/02 13:35:09;;;;;;;0.80;0.80;;;15.80;43.40;;;;;;4991152;28;20030;-79
2022/01/02 13:37:44;;;;;;;2.77;0.60;;;15.80;43.80;;;;;;5011486;28;20486;-80
2022/01/02 13:40:24;;;;;;;0.57;0.57;;;15.70;43.70;;;;;;4993285;28;20010;-80
2022/01/02 13:42:51;;;;;;;1.65;0.80;;;15.60;43.90;;;;;;5012435;28;20026;-80
2022/01/02 13:45:33;;;;;;;0.65;0.65;;;15.60;43.80;;;;;;5011471;28;20022;-80
2022/01/02 13:48:15;;;;;;;1.35;0.80;;;15.60;44.00;;;;;;5030743;28;20014;-80
2022/01/02 13:50:52;;;;;;;2.08;0.80;;;15.60;44.10;;;;;;5013462;28;20026;-80
2022/01/02 13:53:37;;;;;;;0.50;0.50;;;15.50;44.20;;;;;;5013082;28;20080;-80
2022/01/02 13:56:06;;;;;;;0.70;0.70;;;15.50;44.50;;;;;;5010784;28;20030;-80